Time;durP1;ratioP1;P1;durP2;ratioP2;P2;SDS_P1;SDS_P2;PMS_P1;PMS_P2;Temp;Humidity;BMP_temperature;BMP_pressure;BME280_temperature;BME280_humidity;BME280_pressure;Samples;Min_cycle;Max_cycle;Signal;HPM_P1;HPM_P2
2021/05/15 00:00:14;;;;;;;14.70;13.10;;;;;;;13.99;73.78;99733.75;1665914;83;27217;-75
2021/05/15 00:02:43;;;;;;;14.70;11.97;;;;;;;14.04;73.78;99739.28;1719651;82;25740;-74
2021/05/15 00:05:10;;;;;;;13.40;12.10;;;;;;;14.06;73.68;99740.39;1716825;82;25272;-75
2021/05/15 00:07:37;;;;;;;15.50;13.50;;;;;;;14.08;73.63;99741.80;1705076;80;26302;-75
2021/05/15 00:10:07;;;;;;;16.10;12.43;;;;;;;14.08;73.55;99739.11;1683863;81;25675;-75
2021/05/15 00:12:34;;;;;;;19.10;12.40;;;;;;;14.09;73.50;99739.94;1746804;80;28092;-74
2021/05/15 00:15:03;;;;;;;16.73;12.18;;;;;;;14.07;73.45;99739.35;1725628;81;25695;-75
2021/05/15 00:17:30;;;;;;;13.83;11.53;;;;;;;14.04;73.41;99746.02;1690276;83;26422;-74
2021/05/15 00:19:57;;;;;;;12.10;10.80;;;;;;;14.00;73.39;99745.35;1669811;82;25757;-75
2021/05/15 00:22:24;;;;;;;14.05;11.20;;;;;;;13.98;73.29;99744.25;1693918;81;26409;-75
2021/05/15 00:24:51;;;;;;;13.22;10.10;;;;;;;13.98;73.24;99744.77;1719782;82;28134;-75
2021/05/15 00:27:18;;;;;;;11.33;10.10;;;;;;;13.97;73.24;99745.28;1697667;81;25826;-75
2021/05/15 00:29:45;;;;;;;11.48;8.85;;;;;;;13.94;73.16;99748.45;1665587;81;25912;-76
2021/05/15 00:32:12;;;;;;;10.85;8.95;;;;;;;13.88;72.92;99746.12;1716646;81;25803;-75
2021/05/15 00:34:39;;;;;;;10.82;8.98;;;;;;;13.85;72.85;99749.81;1746978;80;26026;-75
2021/05/15 00:37:07;;;;;;;11.65;9.08;;;;;;;13.84;72.89;99750.84;1637717;86;27541;-75
2021/05/15 00:39:34;;;;;;;10.25;8.53;;;;;;;13.84;72.91;99748.98;1622911;83;26120;-74
2021/05/15 00:42:01;;;;;;;10.38;8.25;;;;;;;13.83;72.74;99751.91;1665173;83;26510;-75
2021/05/15 00:44:42;;;;;;;10.28;8.28;;;;;;;13.81;72.66;99758.84;1640179;84;26652;-75
2021/05/15 00:46:57;;;;;;;9.18;8.23;;;;;;;13.80;72.60;99751.02;1653833;84;25887;-75
2021/05/15 00:49:24;;;;;;;11.55;8.03;;;;;;;13.80;72.61;99755.05;1662106;82;27243;-75
2021/05/15 00:51:53;;;;;;;10.03;8.18;;;;;;;13.80;72.68;99758.56;1699389;82;26404;-75
2021/05/15 00:54:20;;;;;;;10.25;8.58;;;;;;;13.80;72.72;99753.19;1695545;82;25676;-75
2021/05/15 00:56:47;;;;;;;8.70;7.75;;;;;;;13.81;72.55;99756.16;1619227;85;25736;-74
2021/05/15 00:59:15;;;;;;;10.00;7.72;;;;;;;13.81;72.58;99762.09;1646174;82;25720;-75
2021/05/15 01:01:42;;;;;;;9.23;8.05;;;;;;;13.77;72.43;99759.56;1691746;83;27546;-74
2021/05/15 01:04:09;;;;;;;8.60;7.62;;;;;;;13.72;72.35;99763.45;1673495;84;25635;-75
2021/05/15 01:06:38;;;;;;;8.13;7.30;;;;;;;13.73;72.40;99759.69;1650670;86;26434;-75
2021/05/15 01:09:06;;;;;;;8.83;7.53;;;;;;;13.70;72.35;99763.68;1643241;83;25883;-76
2021/05/15 01:11:34;;;;;;;12.65;7.35;;;;;;;13.71;72.46;99762.62;1723232;81;26327;-75
2021/05/15 01:14:03;;;;;;;9.18;7.75;;;;;;;13.72;72.43;99756.72;1714828;81;28013;-74
2021/05/15 01:16:39;;;;;;;11.08;7.50;;;;;;;13.71;72.43;99761.27;1655498;83;26391;-75
2021/05/15 01:19:07;;;;;;;7.97;7.17;;;;;;;13.71;72.33;99759.09;1655691;83;25711;-76
2021/05/15 01:21:35;;;;;;;8.40;7.50;;;;;;;13.71;72.57;99759.92;1719920;81;26362;-75
2021/05/15 01:24:03;;;;;;;8.65;7.40;;;;;;;13.69;72.47;99759.84;1687032;83;25767;-75
2021/05/15 01:26:32;;;;;;;9.85;7.95;;;;;;;13.70;72.54;99764.20;1663714;83;27475;-74
2021/05/15 01:29:04;;;;;;;10.23;7.80;;;;;;;13.66;72.68;99760.32;1666457;83;25733;-75
2021/05/15 01:31:31;;;;;;;9.50;7.33;;;;;;;13.61;72.56;99764.20;1692742;83;25711;-75
2021/05/15 01:33:59;;;;;;;9.83;8.20;;;;;;;13.60;72.57;99765.27;1719018;81;25761;-75
2021/05/15 01:36:28;;;;;;;9.83;7.90;;;;;;;13.59;72.76;99760.41;1657689;82;26013;-74
2021/05/15 01:38:55;;;;;;;9.40;7.92;;;;;;;13.61;72.65;99761.52;1630901;85;28113;-75
2021/05/15 01:41:22;;;;;;;13.22;7.58;;;;;;;13.60;72.50;99759.89;1672414;84;25705;-75
2021/05/15 01:43:49;;;;;;;11.68;8.13;;;;;;;13.62;72.57;99767.20;1709261;82;25662;-75
2021/05/15 01:46:16;;;;;;;9.00;7.53;;;;;;;13.60;72.54;99765.27;1687024;80;26356;-76
2021/05/15 01:48:43;;;;;;;9.13;7.45;;;;;;;13.59;72.55;99764.95;1700554;83;25690;-75
2021/05/15 01:51:13;;;;;;;10.13;7.20;;;;;;;13.58;72.44;99763.33;1735059;80;27522;-75
2021/05/15 01:53:49;;;;;;;8.10;6.83;;;;;;;13.55;72.41;99759.73;1702918;83;25680;-75
2021/05/15 01:56:29;;;;;;;7.65;6.72;;;;;;;13.50;72.55;99759.06;1692304;80;25715;-75
2021/05/15 01:58:57;;;;;;;9.00;7.15;;;;;;;13.49;72.46;99753.92;1700185;83;26307;-75
2021/05/15 02:01:25;;;;;;;8.00;6.50;;;;;;;13.49;72.57;99756.61;1745041;80;25474;-75
2021/05/15 02:03:53;;;;;;;8.18;7.15;;;;;;;13.47;72.40;99760.84;1745419;80;27515;-75
2021/05/15 02:06:21;;;;;;;8.48;6.47;;;;;;;13.51;72.50;99764.75;1629550;83;25748;-75
2021/05/15 02:08:49;;;;;;;10.60;6.58;;;;;;;13.50;72.31;99760.41;1656021;82;25911;-75
2021/05/15 02:11:17;;;;;;;9.23;5.80;;;;;;;13.50;72.28;99764.96;1703477;82;25977;-75
2021/05/15 02:13:50;;;;;;;10.63;6.70;;;;;;;13.47;72.53;99756.81;1715081;82;25667;-74
2021/05/15 02:16:18;;;;;;;7.92;6.30;;;;;;;13.46;72.31;99765.94;1663250;82;28069;-74
2021/05/15 02:18:46;;;;;;;6.92;6.17;;;;;;;13.46;72.41;99761.91;1648990;82;25674;-76
2021/05/15 02:21:13;;;;;;;7.30;5.42;;;;;;;13.46;72.30;99765.94;1689455;83;26357;-76
2021/05/15 02:23:41;;;;;;;10.10;6.47;;;;;;;13.43;72.34;99764.23;1668899;84;26311;-75
2021/05/15 02:26:08;;;;;;;7.22;5.87;;;;;;;13.41;72.39;99764.98;1634960;82;25800;-73
2021/05/15 02:28:35;;;;;;;8.90;5.67;;;;;;;13.41;72.50;99761.75;1718951;82;27573;-75
2021/05/15 02:31:02;;;;;;;10.25;6.15;;;;;;;13.40;72.46;99760.64;1744818;80;25713;-75
2021/05/15 02:33:29;;;;;;;6.85;5.92;;;;;;;13.40;72.67;99761.47;1655356;83;25776;-75
2021/05/15 02:35:56;;;;;;;9.60;7.05;;;;;;;13.41;72.38;99757.72;1655899;83;25848;-75
2021/05/15 02:38:23;;;;;;;7.87;5.95;;;;;;;13.42;72.40;99763.92;1690043;80;26132;-75
2021/05/15 02:40:53;;;;;;;8.80;7.20;;;;;;;13.44;72.41;99760.48;1724038;81;27488;-75
2021/05/15 02:43:19;;;;;;;9.68;6.90;;;;;;;13.44;72.53;99763.17;1719901;81;25600;-75
2021/05/15 02:45:47;;;;;;;10.25;7.25;;;;;;;13.41;72.32;99757.72;1684080;80;25727;-75
2021/05/15 02:48:16;;;;;;;10.60;5.90;;;;;;;13.39;72.26;99754.44;1665943;81;26481;-75
2021/05/15 02:50:50;;;;;;;10.75;6.90;;;;;;;13.38;72.31;99761.39;1755403;80;26462;-75
2021/05/15 02:53:19;;;;;;;7.17;6.08;;;;;;;13.36;72.29;99756.25;1725837;81;28017;-75
2021/05/15 02:55:46;;;;;;;7.75;5.90;;;;;;;13.33;72.21;99765.27;1720318;80;25793;-75
2021/05/15 02:58:16;;;;;;;12.03;6.62;;;;;;;13.34;72.33;99762.38;1678879;82;26358;-75
2021/05/15 03:00:43;;;;;;;9.45;6.47;;;;;;;13.36;72.39;99767.00;1722320;82;26380;-76
2021/05/15 03:03:10;;;;;;;9.70;6.72;;;;;;;13.34;72.24;99772.30;1680893;81;26122;-75
2021/05/15 03:05:37;;;;;;;10.18;6.45;;;;;;;13.34;72.21;99777.69;1689211;81;27585;-74
2021/05/15 03:08:04;;;;;;;9.03;5.97;;;;;;;13.33;72.14;99773.34;1748989;80;25896;-75
2021/05/15 03:10:31;;;;;;;7.70;5.95;;;;;;;13.31;72.29;99778.12;1703249;81;26318;-75
2021/05/15 03:12:58;;;;;;;10.48;7.15;;;;;;;13.27;72.16;99775.06;1710976;81;26318;-75
2021/05/15 03:15:26;;;;;;;8.78;6.28;;;;;;;13.25;72.20;99777.16;1735533;80;26385;-76
2021/05/15 03:17:54;;;;;;;7.62;5.87;;;;;;;13.25;72.10;99781.20;1722202;81;27390;-76
2021/05/15 03:20:24;;;;;;;7.10;6.00;;;;;;;13.26;72.02;99779.34;1729880;80;25655;-75
2021/05/15 03:22:52;;;;;;;9.20;5.55;;;;;;;13.26;72.13;99782.02;1687920;80;25727;-76
2021/05/15 03:25:21;;;;;;;7.22;4.47;;;;;;;13.27;72.01;99783.14;1700615;82;26187;-75
2021/05/15 03:27:48;;;;;;;5.95;4.95;;;;;;;13.23;71.49;99787.33;1724322;81;25681;-75
2021/05/15 03:30:17;;;;;;;6.10;4.75;;;;;;;13.22;71.41;99788.35;1709401;81;27481;-75
2021/05/15 03:32:44;;;;;;;7.72;5.03;;;;;;;13.21;71.13;99790.76;1690263;80;25735;-76
2021/05/15 03:35:13;;;;;;;6.05;4.55;;;;;;;13.18;71.02;99799.77;1678952;82;25746;-76
2021/05/15 03:37:41;;;;;;;5.47;4.30;;;;;;;13.18;71.07;99789.84;1716134;82;26431;-75
2021/05/15 03:40:10;;;;;;;5.40;4.45;;;;;;;13.16;70.92;99790.59;1699419;82;25738;-75
2021/05/15 03:42:38;;;;;;;4.62;3.72;;;;;;;13.17;70.89;99800.84;1657442;84;28003;-74
2021/05/15 03:45:07;;;;;;;5.87;3.42;;;;;;;13.14;70.15;99797.55;1699762;83;25783;-74
2021/05/15 03:47:36;;;;;;;4.00;3.08;;;;;;;13.13;70.11;99800.44;1730350;81;25720;-75
2021/05/15 03:50:05;;;;;;;4.33;2.90;;;;;;;13.15;70.10;99803.75;1706946;81;26537;-76
2021/05/15 03:52:32;;;;;;;4.17;2.95;;;;;;;13.12;69.54;99805.02;1667991;83;25786;-76
2021/05/15 03:55:00;;;;;;;4.70;3.15;;;;;;;13.08;69.69;99808.37;1679815;83;27420;-74
2021/05/15 03:57:27;;;;;;;4.67;3.08;;;;;;;13.04;69.47;99812.00;1701952;81;26395;-75
2021/05/15 03:59:54;;;;;;;4.58;3.27;;;;;;;13.05;69.71;99814.17;1710721;82;25748;-74
2021/05/15 04:02:24;;;;;;;7.05;3.15;;;;;;;13.04;69.42;99812.52;1685841;82;25823;-75
2021/05/15 04:04:52;;;;;;;6.33;3.10;;;;;;;13.00;69.63;99813.46;1679663;83;25854;-76
2021/05/15 04:07:19;;;;;;;4.47;3.25;;;;;;;13.01;69.62;99812.43;1726012;81;28052;-75
2021/05/15 04:09:46;;;;;;;3.45;3.12;;;;;;;12.99;69.64;99813.69;1700733;82;25993;-75
2021/05/15 04:12:14;;;;;;;4.60;3.22;;;;;;;12.98;69.51;99816.09;1668110;83;25733;-76
2021/05/15 04:14:50;;;;;;;4.50;2.60;;;;;;;12.97;69.67;99819.30;1667360;83;26327;-74
2021/05/15 04:17:19;;;;;;;3.37;2.72;;;;;;;12.98;69.76;99823.61;1714106;81;25695;-75
2021/05/15 04:19:44;;;;;;;4.40;3.70;;;;;;;12.95;69.71;99831.31;1679425;83;27346;-75
2021/05/15 04:22:11;;;;;;;3.70;2.90;;;;;;;12.92;69.74;99826.36;1663991;82;25826;-75
2021/05/15 04:24:38;;;;;;;3.90;3.50;;;;;;;12.91;69.82;99828.77;1696376;82;26428;-75
2021/05/15 04:27:06;;;;;;;7.00;3.33;;;;;;;12.87;69.70;99828.91;1709988;81;25746;-76
2021/05/15 04:29:34;;;;;;;4.35;2.92;;;;;;;12.88;69.53;99835.91;1704803;82;25500;-75
2021/05/15 04:32:01;;;;;;;3.52;3.17;;;;;;;12.84;69.59;99836.05;1649417;83;28190;-75
2021/05/15 04:34:29;;;;;;;3.08;2.65;;;;;;;12.78;69.18;99830.22;1692712;82;26444;-75
2021/05/15 04:36:58;;;;;;;4.33;2.92;;;;;;;12.74;69.44;99837.08;1720537;82;26355;-75
2021/05/15 04:39:28;;;;;;;4.17;3.30;;;;;;;12.71;69.38;99838.84;1711322;81;26172;-74
2021/05/15 04:41:56;;;;;;;5.35;3.37;;;;;;;12.67;69.36;99843.02;1707629;82;26472;-75
2021/05/15 04:44:23;;;;;;;8.18;4.05;;;;;;;12.67;69.52;99843.02;1718186;80;27518;-75
2021/05/15 04:46:51;;;;;;;4.90;3.42;;;;;;;12.65;69.43;99851.30;1694911;83;25854;-75
2021/05/15 04:49:19;;;;;;;5.03;3.75;;;;;;;12.65;69.49;99845.09;1689390;82;26477;-75
2021/05/15 04:51:46;;;;;;;5.10;3.83;;;;;;;12.66;69.56;99841.38;1654170;84;26338;-76
2021/05/15 04:54:13;;;;;;;5.15;3.70;;;;;;;12.66;69.65;99841.38;1675766;82;26147;-75
2021/05/15 04:56:40;;;;;;;4.42;2.90;;;;;;;12.70;69.73;99844.73;1697627;83;27604;-75
2021/05/15 04:59:09;;;;;;;3.72;3.40;;;;;;;12.72;69.93;99852.08;1705617;81;25744;-74
2021/05/15 05:01:36;;;;;;;3.98;3.30;;;;;;;12.76;69.83;99847.91;1677469;81;26364;-76
2021/05/15 05:04:07;;;;;;;5.10;3.02;;;;;;;12.84;69.65;99853.01;1709741;81;25956;-74
2021/05/15 05:06:33;;;;;;;3.90;3.45;;;;;;;12.91;69.59;99858.33;1723818;80;26397;-75
2021/05/15 05:09:00;;;;;;;4.87;3.42;;;;;;;12.93;69.74;99858.42;1741371;80;27576;-75
2021/05/15 05:11:27;;;;;;;5.60;3.62;;;;;;;12.97;69.63;99862.31;1663494;81;25680;-75
2021/05/15 05:13:57;;;;;;;3.92;3.62;;;;;;;13.04;69.63;99863.59;1703490;81;25791;-74
2021/05/15 05:16:24;;;;;;;4.28;3.85;;;;;;;13.08;69.38;99862.14;1757654;80;26402;-75
2021/05/15 05:18:51;;;;;;;5.30;3.72;;;;;;;13.12;69.35;99861.48;1695874;81;25683;-74
2021/05/15 05:21:18;;;;;;;5.95;3.80;;;;;;;13.17;69.41;99868.89;1708543;83;27023;-75
2021/05/15 05:23:45;;;;;;;3.80;3.47;;;;;;;13.19;69.23;99864.11;1713184;81;25728;-75
2021/05/15 05:26:13;;;;;;;4.22;3.83;;;;;;;13.19;69.40;99871.35;1709296;82;25716;-76
2021/05/15 05:28:42;;;;;;;4.20;3.72;;;;;;;13.21;69.32;99872.78;1688344;82;26338;-73
2021/05/15 05:31:09;;;;;;;6.03;4.47;;;;;;;13.24;69.24;99871.52;1655158;83;25831;-75
2021/05/15 05:33:37;;;;;;;5.50;4.30;;;;;;;13.20;69.16;99868.95;1690179;82;27430;-75
2021/05/15 05:36:06;;;;;;;11.63;5.05;;;;;;;13.19;69.50;99879.42;1718033;82;25783;-74
2021/05/15 05:38:33;;;;;;;6.80;5.70;;;;;;;13.20;69.73;99881.88;1691394;83;25670;-75
2021/05/15 05:41:00;;;;;;;7.92;5.85;;;;;;;13.22;69.79;99882.48;1665540;83;26534;-76
2021/05/15 05:43:28;;;;;;;8.05;7.10;;;;;;;13.26;69.73;99885.56;1704110;82;25665;-75
2021/05/15 05:45:55;;;;;;;9.53;6.97;;;;;;;13.23;69.57;99880.11;1702452;83;28084;-75
2021/05/15 05:48:22;;;;;;;8.08;6.40;;;;;;;13.24;69.68;99881.73;1730013;81;25639;-75
2021/05/15 05:50:49;;;;;;;9.70;7.85;;;;;;;13.24;69.64;99883.62;1654138;83;25253;-75
2021/05/15 05:53:16;;;;;;;15.45;10.98;;;;;;;13.24;69.71;99883.08;1693530;83;26503;-74
2021/05/15 05:55:43;;;;;;;10.35;6.87;;;;;;;13.26;69.53;99889.60;1715953;82;25821;-75
2021/05/15 05:58:10;;;;;;;8.23;6.50;;;;;;;13.26;69.39;99885.56;1703220;82;27975;-75
2021/05/15 06:00:37;;;;;;;8.28;5.58;;;;;;;13.29;69.63;99890.48;1674898;82;25723;-75
2021/05/15 06:03:04;;;;;;;10.28;6.92;;;;;;;13.32;69.48;99890.06;1695247;83;25815;-75
2021/05/15 06:05:31;;;;;;;5.83;5.22;;;;;;;13.33;69.36;99889.83;1722260;82;25856;-75
2021/05/15 06:08:07;;;;;;;8.13;4.97;;;;;;;13.31;69.07;99890.57;1671039;82;26178;-74
2021/05/15 06:10:35;;;;;;;5.80;4.92;;;;;;;13.32;68.97;99895.44;1696899;82;27610;-74
2021/05/15 06:13:04;;;;;;;5.53;5.03;;;;;;;13.31;68.59;99895.13;1678882;82;31889;-76
2021/05/15 06:15:33;;;;;;;5.78;4.67;;;;;;;13.31;68.78;99899.98;1701508;82;26341;-74
2021/05/15 06:18:01;;;;;;;5.65;4.85;;;;;;;13.34;68.85;99904.94;1687588;84;25743;-75
2021/05/15 06:20:28;;;;;;;11.63;7.58;;;;;;;13.39;68.83;99905.59;1660375;85;26399;-75
2021/05/15 06:22:55;;;;;;;9.48;7.67;;;;;;;13.40;68.54;99911.28;1649171;85;27479;-75
2021/05/15 06:25:23;;;;;;;6.78;6.03;;;;;;;13.36;68.40;99908.23;1663108;84;25655;-73
2021/05/15 06:27:52;;;;;;;10.68;6.92;;;;;;;13.38;68.77;99920.10;1657262;84;25764;-76
2021/05/15 06:30:19;;;;;;;7.97;6.42;;;;;;;13.41;68.57;99914.30;1650562;84;25718;-75
2021/05/15 06:32:46;;;;;;;6.75;6.15;;;;;;;13.47;68.47;99925.51;1667234;85;26421;-75
2021/05/15 06:35:14;;;;;;;7.03;5.05;;;;;;;13.46;68.53;99921.16;1689117;84;27972;-73
2021/05/15 06:37:42;;;;;;;5.47;4.87;;;;;;;13.46;68.69;99931.41;1626868;84;26432;-75
2021/05/15 06:40:10;;;;;;;8.23;5.90;;;;;;;13.44;68.50;99929.45;1653012;84;25601;-73
2021/05/15 06:42:38;;;;;;;7.30;5.08;;;;;;;13.41;68.27;99929.89;1694149;83;25579;-75
2021/05/15 06:45:07;;;;;;;5.92;5.40;;;;;;;13.40;68.65;99934.98;1674606;84;25674;-75
2021/05/15 06:47:35;;;;;;;5.37;4.95;;;;;;;13.38;68.42;99933.03;1677834;83;27597;-78
2021/05/15 06:50:09;;;;;;;6.75;4.87;;;;;;;13.44;68.57;99933.49;1697232;83;25703;-77
2021/05/15 06:52:37;;;;;;;7.12;5.65;;;;;;;13.45;68.51;99939.16;1690218;83;26250;-74
2021/05/15 06:55:06;;;;;;;6.25;5.20;;;;;;;13.49;68.40;99936.87;1696759;83;26446;-75
2021/05/15 06:57:33;;;;;;;6.80;5.20;;;;;;;13.54;68.69;99938.35;1690289;82;25713;-75
2021/05/15 07:00:00;;;;;;;7.65;5.35;;;;;;;13.60;68.57;99935.59;1677032;82;27446;-74
2021/05/15 07:02:27;;;;;;;7.10;5.75;;;;;;;13.71;68.56;99940.77;1698525;83;25595;-74
2021/05/15 07:04:54;;;;;;;6.12;5.10;;;;;;;13.79;68.24;99945.88;1693994;83;26396;-76
2021/05/15 07:07:21;;;;;;;7.08;5.67;;;;;;;13.79;67.77;99941.30;1672152;84;26405;-76
2021/05/15 07:09:50;;;;;;;6.70;5.28;;;;;;;13.84;68.12;99943.33;1631988;83;25784;-76
2021/05/15 07:12:17;;;;;;;5.50;4.80;;;;;;;13.94;68.10;99945.80;1692498;83;27656;-76
2021/05/15 07:14:45;;;;;;;7.33;5.20;;;;;;;14.04;68.08;99950.67;1685144;83;26466;-76
2021/05/15 07:17:12;;;;;;;4.97;4.58;;;;;;;14.16;68.01;99940.78;1619724;85;25627;-75
2021/05/15 07:19:40;;;;;;;5.15;4.58;;;;;;;14.35;67.70;99938.39;1650412;84;26348;-74
2021/05/15 07:22:07;;;;;;;5.78;5.05;;;;;;;14.48;67.58;99943.61;1700604;82;26498;-76
2021/05/15 07:24:34;;;;;;;5.20;4.70;;;;;;;14.59;67.41;99938.80;1700922;83;28200;-74
2021/05/15 07:27:01;;;;;;;4.92;4.53;;;;;;;14.68;67.07;99950.09;1647640;83;25728;-77
2021/05/15 07:29:28;;;;;;;6.62;4.90;;;;;;;14.85;67.16;99943.51;1633321;84;25746;-74
2021/05/15 07:31:55;;;;;;;7.12;4.72;;;;;;;14.92;67.05;99945.07;1691083;83;25797;-77
2021/05/15 07:34:22;;;;;;;6.17;4.30;;;;;;;14.99;66.46;99950.37;1689023;82;25738;-76
2021/05/15 07:36:49;;;;;;;4.53;4.12;;;;;;;15.00;66.08;99951.48;1648764;84;27520;-76
2021/05/15 07:39:16;;;;;;;6.17;4.87;;;;;;;15.08;66.03;99946.26;1616905;84;26153;-75
2021/05/15 07:41:43;;;;;;;4.90;4.40;;;;;;;15.20;66.42;99946.60;1673092;85;25711;-74
2021/05/15 07:44:10;;;;;;;4.10;3.70;;;;;;;15.25;65.37;99948.05;1706382;83;26347;-76
2021/05/15 07:46:38;;;;;;;8.30;5.62;;;;;;;15.38;65.00;99947.01;1654092;83;25766;-74
2021/05/15 07:49:05;;;;;;;8.48;6.83;;;;;;;15.50;65.81;99951.11;1672293;83;27730;-75
2021/05/15 07:51:31;;;;;;;7.35;4.47;;;;;;;15.52;64.89;99953.88;1693554;83;25769;-74
2021/05/15 07:53:59;;;;;;;4.00;3.62;;;;;;;15.63;64.01;99947.63;1715533;81;25683;-74
2021/05/15 07:56:26;;;;;;;6.55;5.47;;;;;;;15.68;63.83;99950.45;1666002;84;25881;-75
2021/05/15 07:58:53;;;;;;;6.87;6.17;;;;;;;15.64;61.98;99954.69;1614359;85;26355;-76
2021/05/15 08:01:21;;;;;;;5.97;4.10;;;;;;;15.64;62.54;99949.28;1683194;83;27524;-74
2021/05/15 08:03:48;;;;;;;3.90;3.50;;;;;;;15.81;63.20;99950.73;1689350;83;26430;-75
2021/05/15 08:06:15;;;;;;;4.53;2.65;;;;;;;15.97;62.37;99956.78;1645515;84;25282;-75
2021/05/15 08:08:42;;;;;;;5.55;3.80;;;;;;;16.08;61.41;99949.20;1693634;82;25811;-75
2021/05/15 08:11:11;;;;;;;2.80;2.55;;;;;;;16.16;61.94;99950.17;1689302;83;25856;-75
2021/05/15 08:13:39;;;;;;;2.80;2.42;;;;;;;16.26;60.57;99953.07;1661641;83;27599;-75
2021/05/15 08:16:06;;;;;;;2.67;2.20;;;;;;;16.32;61.68;99952.63;1667130;83;25622;-75
2021/05/15 08:18:33;;;;;;;4.90;1.67;;;;;;;16.34;59.74;99950.54;1652792;83;25722;-76
2021/05/15 08:21:00;;;;;;;1.62;1.52;;;;;;;16.41;59.69;99952.03;1704918;81;26393;-75
2021/05/15 08:23:27;;;;;;;2.33;1.90;;;;;;;16.50;59.42;99947.92;1700170;82;25610;-76
2021/05/15 08:25:54;;;;;;;4.12;1.85;;;;;;;16.52;59.40;99953.08;1658522;83;27418;-74
2021/05/15 08:28:23;;;;;;;1.87;1.65;;;;;;;16.61;58.30;99957.05;1657008;83;26477;-74
2021/05/15 08:30:50;;;;;;;5.42;1.50;;;;;;;16.59;58.48;99955.13;1699594;83;25690;-76
2021/05/15 08:33:17;;;;;;;3.62;1.57;;;;;;;16.62;57.30;99962.20;1699352;83;26296;-75
2021/05/15 08:35:44;;;;;;;1.40;1.25;;;;;;;16.65;57.14;99962.27;1655311;83;26414;-73
2021/05/15 08:38:11;;;;;;;4.10;1.12;;;;;;;16.73;58.37;99968.11;1638786;83;26808;-75
2021/05/15 08:40:38;;;;;;;2.45;1.70;;;;;;;16.85;55.94;99968.06;1701077;83;25470;-75
2021/05/15 08:43:12;;;;;;;3.65;1.50;;;;;;;16.86;57.54;99966.98;1693333;83;25260;-76
2021/05/15 08:45:36;;;;;;;3.85;1.62;;;;;;;16.89;56.66;99961.10;1672369;81;26589;-74
2021/05/15 08:48:05;;;;;;;2.25;1.50;;;;;;;16.92;56.79;99959.25;1680930;83;25664;-76
2021/05/15 08:50:33;;;;;;;2.00;1.52;;;;;;;17.02;56.04;99965.38;1699757;83;28025;-74
2021/05/15 08:53:01;;;;;;;3.12;2.00;;;;;;;17.08;55.99;99964.41;1683255;83;26043;-76
2021/05/15 08:55:31;;;;;;;3.08;1.52;;;;;;;17.08;54.45;99961.17;1640040;84;25919;-75
2021/05/15 08:58:00;;;;;;;5.13;1.90;;;;;;;17.08;55.33;99957.11;1646046;82;25757;-74
2021/05/15 09:00:37;;;;;;;3.70;2.50;;;;;;;17.10;53.10;99958.21;1694303;82;25730;-76
2021/05/15 09:03:08;;;;;;;3.20;2.10;;;;;;;17.04;54.82;99964.61;1690065;83;27475;-76
2021/05/15 09:05:39;;;;;;;6.53;2.47;;;;;;;16.98;54.89;99970.44;1729421;81;26357;-74
2021/05/15 09:08:11;;;;;;;6.17;2.47;;;;;;;16.97;54.64;99966.11;1685969;82;25640;-75
2021/05/15 09:10:42;;;;;;;4.30;2.10;;;;;;;17.01;54.88;99961.85;1690157;83;26366;-78
2021/05/15 09:13:18;;;;;;;3.80;2.45;;;;;;;17.06;55.12;99965.19;1715524;81;25754;-77
2021/05/15 09:15:53;;;;;;;19.00;7.42;;;;;;;17.15;54.64;99965.08;1666702;83;27584;-76
2021/05/15 09:18:24;;;;;;;8.45;4.50;;;;;;;17.22;52.96;99967.07;1679720;81;26462;-75
2021/05/15 09:20:55;;;;;;;5.05;2.87;;;;;;;17.33;53.67;99960.77;1684450;82;25735;-75
2021/05/15 09:23:33;;;;;;;7.97;2.90;;;;;;;17.47;54.16;99965.59;1686806;83;25754;-76
2021/05/15 09:26:03;;;;;;;5.70;3.10;;;;;;;17.62;54.67;99973.20;1663644;82;25907;-77
2021/05/15 09:28:40;;;;;;;4.03;2.37;;;;;;;17.71;53.51;99975.75;1672013;83;27991;-76
2021/05/15 09:31:23;;;;;;;5.37;2.52;;;;;;;17.71;52.30;99973.05;1696826;83;25740;-75
2021/05/15 09:34:03;;;;;;;4.83;2.00;;;;;;;17.68;51.39;99962.72;1724687;80;25509;-75
2021/05/15 09:36:34;;;;;;;8.00;2.00;;;;;;;17.69;52.80;99964.34;1673282;81;25965;-76
2021/05/15 09:39:17;;;;;;;4.22;2.50;;;;;;;17.80;52.61;99964.79;1704356;80;25511;-75
2021/05/15 09:41:51;;;;;;;4.15;1.85;;;;;;;17.83;51.62;99964.83;1760570;80;28065;-74
2021/05/15 09:44:21;;;;;;;5.28;3.05;;;;;;;17.87;51.67;99965.44;1676936;83;26432;-76
2021/05/15 09:46:49;;;;;;;5.42;3.22;;;;;;;17.99;50.36;99967.50;1642020;82;26287;-74
2021/05/15 09:49:23;;;;;;;6.17;3.25;;;;;;;18.02;49.75;99970.25;1649295;82;26182;-75
2021/05/15 09:52:00;;;;;;;4.65;3.58;;;;;;;18.01;50.52;99964.00;1701960;82;25714;-76
2021/05/15 09:54:33;;;;;;;4.33;3.05;;;;;;;18.11;50.63;99970.11;1696123;82;27469;-76
2021/05/15 09:57:09;;;;;;;8.70;3.27;;;;;;;18.15;50.32;99972.07;1641156;85;25675;-74
2021/05/15 09:59:39;;;;;;;5.65;4.30;;;;;;;18.21;49.55;99966.99;1644553;82;26252;-74
2021/05/15 10:02:09;;;;;;;3.98;2.40;;;;;;;18.21;49.65;99968.34;1703650;82;26544;-75
2021/05/15 10:04:36;;;;;;;6.07;3.10;;;;;;;18.19;49.56;99966.42;1685237;82;25777;-76
2021/05/15 10:07:07;;;;;;;4.12;2.62;;;;;;;18.17;49.20;99965.86;1661441;85;27566;-76
2021/05/15 10:09:37;;;;;;;5.20;2.55;;;;;;;18.23;49.87;99965.38;1708591;82;26233;-76
2021/05/15 10:12:06;;;;;;;5.30;1.90;;;;;;;18.38;49.85;99975.06;1656430;82;25739;-75
2021/05/15 10:14:33;;;;;;;6.53;1.90;;;;;;;18.45;49.05;99970.31;1617624;83;25769;-76
2021/05/15 10:17:00;;;;;;;5.20;2.15;;;;;;;18.51;48.75;99969.81;1637401;83;25656;-76
2021/05/15 10:19:29;;;;;;;3.05;1.87;;;;;;;18.52;49.23;99968.76;1710188;82;27841;-76
2021/05/15 10:21:57;;;;;;;3.92;2.60;;;;;;;18.61;49.85;99960.43;1713549;82;26380;-76
2021/05/15 10:24:31;;;;;;;4.05;2.30;;;;;;;18.72;47.98;99972.51;1632559;84;25872;-76
2021/05/15 10:27:05;;;;;;;5.62;3.40;;;;;;;18.77;47.30;99960.36;1669605;83;25791;-76
2021/05/15 10:29:53;;;;;;;8.80;4.00;;;;;;;18.76;47.46;99977.70;1705431;82;25612;-76
2021/05/15 10:32:30;;;;;;;5.55;3.05;;;;;;;18.73;47.04;99974.69;1689704;83;27262;-76
2021/05/15 10:35:05;;;;;;;6.37;2.60;;;;;;;18.73;48.50;99974.69;1691419;82;26335;-75
2021/05/15 10:37:42;;;;;;;8.63;3.45;;;;;;;18.85;48.89;99973.47;1667418;83;26575;-77
2021/05/15 10:40:20;;;;;;;8.83;2.75;;;;;;;18.79;47.41;99977.73;1700935;82;26392;-75
2021/05/15 10:43:00;;;;;;;6.33;2.83;;;;;;;18.77;48.35;99989.38;1687629;82;25696;-76
2021/05/15 10:45:37;;;;;;;4.47;2.80;;;;;;;18.78;48.07;99983.70;1665404;84;27555;-76
2021/05/15 10:48:22;;;;;;;6.10;2.52;;;;;;;18.84;46.41;99974.53;1662276;84;25721;-76
2021/05/15 10:50:55;;;;;;;7.83;2.70;;;;;;;18.86;47.48;99983.80;1675315;83;25738;-75
2021/05/15 10:53:28;;;;;;;4.85;2.17;;;;;;;18.89;47.16;99983.27;1676845;83;26328;-77
2021/05/15 10:56:13;;;;;;;3.20;2.00;;;;;;;18.79;46.85;99980.45;1670677;83;25679;-75
2021/05/15 10:58:52;;;;;;;4.28;2.80;;;;;;;18.71;48.03;99979.00;1664303;83;27991;-76
2021/05/15 11:01:21;;;;;;;3.75;2.58;;;;;;;18.67;47.32;99985.21;1665070;84;26235;-75
2021/05/15 11:03:49;;;;;;;5.10;2.37;;;;;;;18.57;46.91;99976.94;1673931;84;25653;-75
2021/05/15 11:06:21;;;;;;;4.00;2.25;;;;;;;18.51;47.10;99976.59;1637901;85;27079;-76
2021/05/15 11:09:07;;;;;;;25.70;5.95;;;;;;;18.61;47.34;99982.13;1661127;84;25318;-75
2021/05/15 11:11:44;;;;;;;31.62;6.45;;;;;;;18.70;47.79;99984.69;1686824;83;27487;-75
2021/05/15 11:14:39;;;;;;;9.03;2.80;;;;;;;18.74;48.40;99978.50;1665226;84;26392;-74
2021/05/15 11:17:27;;;;;;;6.67;2.60;;;;;;;18.71;47.75;99979.00;1637668;85;25685;-74
2021/05/15 11:20:05;;;;;;;4.47;2.77;;;;;;;18.79;47.24;99977.20;1676404;83;26341;-75
2021/05/15 11:22:47;;;;;;;14.20;3.90;;;;;;;18.85;47.25;99980.78;1681927;83;25699;-75
2021/05/15 11:25:24;;;;;;;19.70;5.10;;;;;;;18.84;47.77;99975.09;1703682;82;27084;-75
2021/05/15 11:28:02;;;;;;;8.20;3.12;;;;;;;19.01;47.80;99975.80;1665135;83;25723;-75
2021/05/15 11:30:43;;;;;;;12.98;4.65;;;;;;;19.16;47.33;99980.82;1664829;83;25646;-76
2021/05/15 11:33:21;;;;;;;11.28;4.42;;;;;;;19.30;48.20;99977.16;1687207;83;26393;-76
2021/05/15 11:35:51;;;;;;;12.03;4.85;;;;;;;19.49;47.26;99970.81;1676637;84;26428;-74
2021/05/15 11:38:27;;;;;;;21.50;5.93;;;;;;;19.65;46.17;99979.38;1643989;85;27591;-75
2021/05/15 11:40:57;;;;;;;14.85;4.60;;;;;;;19.72;47.24;99971.26;1647274;83;25905;-75